Aérodrome :
LOGIN :

S'inscrire | Disclaimer

   EN    FR    IT 

 










Légende :    VFR   VFR Marginal   IFR   IFR Intensif   IFR Très Intensif
Visi : 
Plafond : 
>= 8 km
>= 3000ft
5 à 8 km
1000 à 3000 ft
1500m à 5 km
500 à 1000 ft
800 à 1500m
200 à 500 ft
< 800m
< 200 ft
Symboles :   Orages  Brouillard  Fortes neiges  Fortes précipitations  Vent > 20 kt
SIGMETs :   Divers  Orages  Givrage  Turbulence  Onde Orograph.  Cendres Volcan.






- Altitude de l'aérodrome : 297 ft


EGVP - Middle Wallop

DERNIER METAR :
  • 030550Z AUTO 31002KT 8000 BR NCD 09/08 Q1013

METARs EXPIRÉS :
  • 030450Z AUTO 35001KT 9999 SCT001/// 08/07 Q1013
  • 030350Z AUTO 06003KT 0250 FG SCT001/// 09/08 Q1012

TAF TAF EGVP
Valide du 03 à 07h jusqu'au 03 à 15h UTC


030549Z 0307/0315 32002KT 9999 FEW001
PROB40
TEMPO 0307/0308 3000 BR PRFG SCT001
TEMPO 0309/0312 SCT020
PROB30
TEMPO 0310/0315 6000 SHRA
ATIS : +44 1980 674 142



MET'MAP, la Météo Aéronautique d'un coup d'oeil ! - Copyright ORBIFLY Décembre 2007 - Disclaimer

ORBIFLY MET'MAP TEAM :

Programmation & Développement : Alexandra Zaïnal
Sur une idée originale de : Baudouin d'Aumeries
Assistance à la programmation : Marc-Olivier Méhu
Soutien technique & logistique : Manuel Goepfert

Contact : metmap@orbifly.com




SOURCES & CREDITS :

   NOAA